Time;durP1;ratioP1;P1;durP2;ratioP2;P2;SDS_P1;SDS_P2;PMS_P1;PMS_P2;Temp;Humidity;BMP_temperature;BMP_pressure;BME280_temperature;BME280_humidity;BME280_pressure;Samples;Min_cycle;Max_cycle;Signal;HPM_P1;HPM_P2
2023/03/09 00:01:28;;;;;;;10.35;6.70;;;1.60;99.90;;;;;;4992006;28;20057;-79
2023/03/09 00:03:55;;;;;;;10.18;6.28;;;1.50;99.90;;;;;;4990423;28;20054;-80
2023/03/09 00:06:21;;;;;;;11.18;6.57;;;1.50;99.90;;;;;;4991178;28;20050;-79
2023/03/09 00:08:47;;;;;;;8.63;5.88;;;1.60;99.90;;;;;;4992378;28;20054;-79
2023/03/09 00:11:14;;;;;;;9.95;6.40;;;1.60;99.90;;;;;;4975042;28;20085;-79
2023/03/09 00:13:39;;;;;;;10.23;6.82;;;1.60;99.90;;;;;;4991049;28;20057;-79
2023/03/09 00:16:26;;;;;;;10.23;6.78;;;1.50;99.90;;;;;;4989799;28;20435;-79
2023/03/09 00:18:53;;;;;;;10.05;6.55;;;1.60;99.90;;;;;;4973044;28;20058;-79
2023/03/09 00:21:36;;;;;;;9.50;6.63;;;1.50;99.90;;;;;;4989099;28;20429;-80
2023/03/09 00:24:11;;;;;;;10.35;6.15;;;1.50;99.90;;;;;;4989487;28;20050;-79
2023/03/09 00:26:39;;;;;;;8.90;6.00;;;1.50;99.90;;;;;;4981634;28;20433;-79
2023/03/09 00:29:10;;;;;;;9.38;6.10;;;1.40;99.90;;;;;;4990772;28;20038;-80
2023/03/09 00:31:36;;;;;;;9.77;6.25;;;1.40;99.90;;;;;;4989954;28;20053;-79
2023/03/09 00:34:02;;;;;;;9.05;6.03;;;1.30;99.90;;;;;;4972765;28;20133;-80
2023/03/09 00:36:27;;;;;;;10.07;6.07;;;1.30;99.90;;;;;;4989238;28;20612;-79
2023/03/09 00:38:55;;;;;;;10.95;6.82;;;1.30;99.90;;;;;;4988465;28;20113;-80
2023/03/09 00:41:22;;;;;;;10.75;6.35;;;1.20;99.90;;;;;;4990685;28;20053;-80
2023/03/09 00:43:48;;;;;;;12.40;7.25;;;1.20;99.90;;;;;;4986010;28;20473;-80
2023/03/09 00:46:14;;;;;;;12.13;6.57;;;1.20;99.90;;;;;;4985899;28;20082;-79
2023/03/09 00:48:41;;;;;;;10.82;7.00;;;1.20;99.90;;;;;;4988641;28;20050;-79
2023/03/09 00:51:07;;;;;;;13.90;7.72;;;1.20;99.90;;;;;;4972630;28;20421;-80
2023/03/09 00:53:33;;;;;;;12.38;7.88;;;1.10;99.90;;;;;;4982454;28;20058;-80
2023/03/09 00:56:04;;;;;;;13.63;8.32;;;1.10;99.90;;;;;;4983125;28;20046;-80
2023/03/09 00:58:30;;;;;;;13.43;8.32;;;1.10;99.90;;;;;;4988605;28;20406;-80
2023/03/09 01:00:56;;;;;;;12.60;8.32;;;1.10;99.90;;;;;;4989060;28;20046;-79
2023/03/09 01:03:21;;;;;;;13.70;8.40;;;1.10;99.90;;;;;;4983623;28;20054;-80
2023/03/09 01:05:47;;;;;;;13.40;8.43;;;1.10;99.90;;;;;;4970938;28;20043;-80
2023/03/09 01:08:12;;;;;;;15.32;8.90;;;1.10;99.90;;;;;;4990597;28;20084;-80
2023/03/09 01:10:39;;;;;;;15.48;8.20;;;1.00;99.90;;;;;;4990447;28;20053;-80
2023/03/09 01:13:05;;;;;;;15.73;8.48;;;1.00;99.90;;;;;;4987418;28;20047;-80
2023/03/09 01:15:30;;;;;;;16.33;8.63;;;1.00;99.90;;;;;;4979544;28;20559;-80
2023/03/09 01:17:56;;;;;;;14.50;8.30;;;1.00;99.90;;;;;;4989634;28;20069;-80
2023/03/09 01:20:22;;;;;;;13.40;7.72;;;0.90;99.90;;;;;;4991468;28;20063;-80
2023/03/09 01:22:48;;;;;;;13.95;7.72;;;1.00;99.90;;;;;;4987801;28;20042;-80
2023/03/09 01:25:14;;;;;;;14.52;7.22;;;0.90;99.90;;;;;;4989730;28;20125;-80
2023/03/09 01:27:39;;;;;;;13.30;7.50;;;0.90;99.90;;;;;;4986768;28;20058;-80
2023/03/09 01:30:06;;;;;;;13.57;7.45;;;0.90;99.90;;;;;;4989326;28;20042;-80
2023/03/09 01:32:31;;;;;;;14.57;7.90;;;0.90;99.90;;;;;;4985463;28;20050;-80
2023/03/09 01:34:57;;;;;;;14.93;8.20;;;0.90;99.90;;;;;;4991057;28;20048;-79
2023/03/09 01:37:23;;;;;;;13.18;7.43;;;0.90;99.90;;;;;;4985663;28;20052;-80
2023/03/09 01:39:52;;;;;;;13.38;7.88;;;0.90;99.90;;;;;;4972583;28;20491;-79
2023/03/09 01:42:17;;;;;;;12.95;7.38;;;0.80;99.90;;;;;;4983809;28;20047;-79
2023/03/09 01:44:43;;;;;;;13.60;7.75;;;0.90;99.90;;;;;;4983398;28;20371;-79
2023/03/09 01:47:09;;;;;;;13.05;7.72;;;0.80;99.90;;;;;;4972378;28;20047;-78
2023/03/09 01:49:46;;;;;;;14.02;7.00;;;0.80;99.90;;;;;;4989855;28;20066;-79
2023/03/09 01:52:32;;;;;;;13.15;7.43;;;0.80;99.90;;;;;;4988625;28;20116;-78
2023/03/09 01:55:02;;;;;;;11.30;6.85;;;0.80;99.90;;;;;;4972754;28;20046;-79
2023/03/09 01:57:39;;;;;;;12.48;8.02;;;0.80;99.90;;;;;;4990595;28;20460;-79
2023/03/09 02:00:07;;;;;;;13.13;7.28;;;0.80;99.90;;;;;;4989791;28;20030;-79
2023/03/09 02:02:38;;;;;;;12.68;7.70;;;0.80;99.90;;;;;;4988183;28;20062;-79
2023/03/09 02:05:09;;;;;;;13.95;7.05;;;0.80;99.90;;;;;;4989526;28;20046;-79
2023/03/09 02:07:36;;;;;;;12.40;7.07;;;1.70;99.90;;;;;;4990195;28;20444;-79
2023/03/09 02:10:26;;;;;;;11.50;7.43;;;0.80;99.90;;;;;;4988416;28;20058;-78
2023/03/09 02:12:56;;;;;;;12.95;7.28;;;0.80;99.90;;;;;;4988799;28;20170;-79
2023/03/09 02:15:24;;;;;;;12.20;6.97;;;0.80;99.90;;;;;;4988060;28;20054;-79
2023/03/09 02:17:52;;;;;;;13.45;7.88;;;0.80;99.90;;;;;;4986231;28;20122;-78
2023/03/09 02:20:29;;;;;;;11.57;7.72;;;0.80;99.90;;;;;;4988472;28;20172;-79
2023/03/09 02:22:55;;;;;;;11.27;7.40;;;0.80;99.90;;;;;;4972946;28;20050;-79
2023/03/09 02:25:51;;;;;;;11.82;7.05;;;0.80;99.90;;;;;;4979142;28;20065;-79
2023/03/09 02:28:18;;;;;;;13.45;7.78;;;0.90;99.90;;;;;;4983453;28;20072;-79
2023/03/09 02:30:46;;;;;;;12.65;7.90;;;0.80;99.90;;;;;;4987771;28;20515;-79
2023/03/09 02:33:27;;;;;;;14.38;6.90;;;0.90;99.90;;;;;;4986930;28;20493;-79
2023/03/09 02:35:55;;;;;;;12.65;7.60;;;0.80;99.90;;;;;;4988872;28;20420;-78
2023/03/09 02:38:21;;;;;;;15.32;8.48;;;0.90;99.90;;;;;;4988799;28;20132;-79
2023/03/09 02:40:48;;;;;;;11.52;6.97;;;0.90;99.90;;;;;;4986426;28;20050;-79
2023/03/09 02:43:17;;;;;;;11.50;7.43;;;0.90;99.90;;;;;;4986897;28;20073;-79
2023/03/09 02:45:43;;;;;;;11.20;7.38;;;0.90;99.90;;;;;;4984939;28;20497;-79
2023/03/09 02:48:08;;;;;;;12.05;7.05;;;0.80;99.90;;;;;;4987567;28;20050;-79
2023/03/09 02:50:34;;;;;;;11.05;6.88;;;0.90;99.90;;;;;;4968963;28;20061;-78
2023/03/09 02:53:00;;;;;;;12.98;7.20;;;0.90;99.90;;;;;;4988438;28;20042;-79
2023/03/09 02:55:26;;;;;;;11.55;7.28;;;0.90;99.90;;;;;;4972652;28;20402;-79
2023/03/09 02:57:51;;;;;;;10.85;7.28;;;0.90;99.90;;;;;;4965740;28;20051;-79
2023/03/09 03:00:21;;;;;;;11.00;6.53;;;0.90;99.90;;;;;;4985623;28;20141;-79
2023/03/09 03:02:46;;;;;;;11.13;7.03;;;0.90;99.90;;;;;;4988539;28;20382;-79
2023/03/09 03:05:12;;;;;;;11.27;7.20;;;0.90;99.90;;;;;;4987511;28;20382;-79
2023/03/09 03:07:37;;;;;;;10.80;6.22;;;0.90;99.90;;;;;;4981426;28;20043;-78
2023/03/09 03:10:03;;;;;;;10.65;6.07;;;0.90;99.90;;;;;;4975634;28;20047;-79
2023/03/09 03:12:29;;;;;;;11.23;6.63;;;0.90;99.90;;;;;;4986717;28;20374;-79
2023/03/09 03:14:55;;;;;;;11.68;7.72;;;0.90;99.90;;;;;;4989884;28;20393;-79
2023/03/09 03:17:20;;;;;;;12.43;7.43;;;1.00;99.90;;;;;;4985901;28;20078;-79
2023/03/09 03:19:46;;;;;;;10.50;6.90;;;0.90;99.90;;;;;;4988403;28;20073;-78
2023/03/09 03:22:11;;;;;;;13.45;7.50;;;1.10;99.90;;;;;;4970148;28;20413;-79
2023/03/09 03:24:39;;;;;;;12.90;7.60;;;1.00;99.90;;;;;;4969678;28;20465;-79
2023/03/09 03:27:05;;;;;;;12.45;7.45;;;0.90;99.90;;;;;;4969646;28;20042;-78
2023/03/09 03:29:30;;;;;;;14.75;6.95;;;0.90;99.90;;;;;;4988037;28;20428;-78
2023/03/09 03:31:56;;;;;;;12.38;7.03;;;0.90;99.90;;;;;;4968975;28;20054;-79
2023/03/09 03:34:22;;;;;;;13.43;7.55;;;0.90;99.90;;;;;;4988511;28;20042;-79
2023/03/09 03:36:47;;;;;;;9.48;6.07;;;0.90;99.90;;;;;;4987295;28;20053;-78
2023/03/09 03:39:13;;;;;;;11.38;7.07;;;0.90;99.90;;;;;;4969617;28;20042;-78
2023/03/09 03:41:39;;;;;;;12.88;6.97;;;0.90;99.90;;;;;;4982436;28;20049;-79
2023/03/09 03:44:04;;;;;;;11.35;6.80;;;1.00;99.90;;;;;;4986544;28;20421;-78
2023/03/09 03:46:30;;;;;;;13.30;7.82;;;0.90;99.90;;;;;;4986797;28;20049;-78
2023/03/09 03:48:56;;;;;;;11.75;7.20;;;0.90;99.90;;;;;;4985484;28;20053;-79
2023/03/09 03:51:22;;;;;;;11.85;7.55;;;0.90;99.90;;;;;;4986719;28;20042;-79
2023/03/09 03:53:50;;;;;;;13.65;7.32;;;0.90;99.90;;;;;;4981373;28;20042;-82
2023/03/09 03:56:17;;;;;;;11.52;7.00;;;0.90;99.90;;;;;;4974225;28;20073;-79
2023/03/09 03:58:42;;;;;;;12.07;6.95;;;0.90;99.90;;;;;;4988507;28;20457;-79
2023/03/09 04:01:08;;;;;;;13.75;7.45;;;0.90;99.90;;;;;;4986850;28;20050;-79
2023/03/09 04:03:34;;;;;;;14.70;7.85;;;0.90;99.90;;;;;;4970966;28;20404;-79
2023/03/09 04:06:02;;;;;;;13.48;8.07;;;0.90;99.90;;;;;;4987009;28;20123;-79
2023/03/09 04:08:28;;;;;;;12.90;7.15;;;0.90;99.90;;;;;;4983923;28;20043;-79
2023/03/09 04:10:53;;;;;;;13.20;7.68;;;0.90;99.90;;;;;;4987049;28;20378;-79
2023/03/09 04:13:19;;;;;;;12.15;7.63;;;0.90;99.90;;;;;;4987698;28;20054;-79
2023/03/09 04:15:44;;;;;;;13.52;7.90;;;0.90;99.90;;;;;;4985915;28;20064;-79
2023/03/09 04:18:10;;;;;;;13.80;8.43;;;0.90;99.90;;;;;;4987838;28;20065;-79
2023/03/09 04:20:38;;;;;;;15.27;8.15;;;0.90;99.90;;;;;;4986989;28;20049;-79
2023/03/09 04:23:04;;;;;;;14.00;8.07;;;0.90;99.90;;;;;;4988033;28;20054;-79
2023/03/09 04:25:29;;;;;;;13.35;8.18;;;0.90;99.90;;;;;;4987152;28;20460;-79
2023/03/09 04:27:56;;;;;;;14.13;8.40;;;0.90;99.90;;;;;;4985755;28;20046;-79
2023/03/09 04:30:22;;;;;;;13.15;7.70;;;0.90;99.90;;;;;;4971092;28;20050;-79
2023/03/09 04:32:49;;;;;;;12.82;8.10;;;0.90;99.90;;;;;;4988075;28;20056;-79
2023/03/09 04:35:15;;;;;;;12.48;8.02;;;0.90;99.90;;;;;;4987381;28;20085;-79
2023/03/09 04:37:41;;;;;;;12.32;7.88;;;0.90;99.90;;;;;;4989198;28;20378;-79
2023/03/09 04:40:07;;;;;;;14.35;8.00;;;0.80;99.90;;;;;;4990662;28;20061;-79
2023/03/09 04:42:32;;;;;;;14.18;8.10;;;0.90;99.90;;;;;;4989427;28;20069;-79
2023/03/09 04:44:58;;;;;;;15.25;9.10;;;0.80;99.90;;;;;;4990660;28;20058;-79
2023/03/09 04:47:23;;;;;;;15.93;8.82;;;0.90;99.90;;;;;;4989334;28;20046;-79
2023/03/09 04:49:49;;;;;;;15.50;8.98;;;0.90;99.90;;;;;;4990305;28;20057;-79
2023/03/09 04:52:15;;;;;;;14.15;8.60;;;0.90;99.90;;;;;;4990683;28;20056;-79
2023/03/09 04:54:41;;;;;;;16.45;8.93;;;0.90;99.90;;;;;;4990668;28;20053;-79
2023/03/09 04:57:07;;;;;;;16.33;9.43;;;0.80;99.90;;;;;;4991299;28;20054;-79
2023/03/09 04:59:33;;;;;;;16.38;9.27;;;0.80;99.90;;;;;;4989455;28;20054;-79
2023/03/09 05:01:58;;;;;;;14.68;8.68;;;0.90;99.90;;;;;;4991211;28;20030;-79
2023/03/09 05:04:24;;;;;;;16.30;9.50;;;0.80;99.90;;;;;;4990366;28;20046;-79
2023/03/09 05:06:50;;;;;;;15.73;9.43;;;0.80;99.90;;;;;;4990022;28;20042;-80
2023/03/09 05:09:16;;;;;;;16.77;9.35;;;0.80;99.90;;;;;;4990717;28;20088;-79
2023/03/09 05:11:43;;;;;;;17.02;9.25;;;0.80;99.90;;;;;;4989609;28;20366;-79
2023/03/09 05:14:09;;;;;;;16.45;10.23;;;0.80;99.90;;;;;;4989574;28;20523;-79
2023/03/09 05:16:34;;;;;;;18.83;10.05;;;0.70;99.90;;;;;;4972080;28;20050;-79
2023/03/09 05:19:00;;;;;;;18.00;10.38;;;0.70;99.90;;;;;;4988677;28;20100;-79
2023/03/09 05:21:26;;;;;;;17.20;10.13;;;0.70;99.90;;;;;;4986976;28;20034;-79
2023/03/09 05:23:51;;;;;;;20.60;10.77;;;0.70;99.90;;;;;;4990547;28;20050;-80
2023/03/09 05:26:17;;;;;;;23.42;10.55;;;0.70;99.90;;;;;;4989121;28;20078;-80
2023/03/09 05:28:43;;;;;;;20.10;10.38;;;0.70;99.90;;;;;;4989982;28;20065;-80
2023/03/09 05:31:10;;;;;;;20.95;11.30;;;0.60;99.90;;;;;;4989819;28;20074;-80
2023/03/09 05:33:36;;;;;;;20.98;11.25;;;0.60;99.90;;;;;;4989597;28;20057;-79
2023/03/09 05:36:03;;;;;;;18.45;10.60;;;0.60;99.90;;;;;;4988544;28;20058;-79
2023/03/09 05:38:28;;;;;;;18.98;10.70;;;0.60;99.90;;;;;;4989048;28;20038;-79
2023/03/09 05:40:54;;;;;;;17.90;10.25;;;0.60;99.90;;;;;;4989531;28;20054;-79
2023/03/09 05:43:20;;;;;;;18.65;10.27;;;0.60;99.90;;;;;;4989616;28;20517;-80
2023/03/09 05:45:54;;;;;;;20.52;10.50;;;0.60;99.90;;;;;;4988968;28;20042;-79
2023/03/09 05:48:20;;;;;;;21.58;11.05;;;0.70;99.90;;;;;;4989235;28;20513;-79
2023/03/09 05:50:45;;;;;;;19.20;11.07;;;0.60;99.90;;;;;;4989051;28;20126;-79
2023/03/09 05:53:11;;;;;;;20.30;10.88;;;0.60;99.90;;;;;;4987672;28;20042;-80
2023/03/09 05:55:37;;;;;;;18.95;10.25;;;0.60;99.90;;;;;;4989165;28;20042;-79
2023/03/09 05:58:02;;;;;;;20.38;11.00;;;0.70;99.90;;;;;;4989600;28;20054;-79
2023/03/09 06:00:28;;;;;;;19.30;10.77;;;0.60;99.90;;;;;;4988721;28;20077;-79
2023/03/09 06:02:53;;;;;;;21.83;10.73;;;0.60;99.90;;;;;;4990539;28;20469;-80
2023/03/09 06:05:19;;;;;;;19.48;10.55;;;0.60;99.90;;;;;;4988284;28;20133;-80
2023/03/09 06:07:45;;;;;;;20.60;10.20;;;0.60;99.90;;;;;;4988442;28;20097;-80
2023/03/09 06:10:12;;;;;;;21.00;11.13;;;0.70;99.90;;;;;;4989498;28;20097;-80
2023/03/09 06:12:37;;;;;;;21.75;11.20;;;0.70;99.90;;;;;;4988982;28;20058;-81
2023/03/09 06:15:03;;;;;;;19.50;10.60;;;0.70;99.90;;;;;;4969054;28;20042;-80
2023/03/09 06:17:29;;;;;;;19.17;11.18;;;0.70;99.90;;;;;;4988394;28;20042;-79
2023/03/09 06:19:55;;;;;;;17.98;10.55;;;0.70;99.90;;;;;;4985538;28;20050;-80
2023/03/09 06:22:20;;;;;;;17.70;10.68;;;0.70;99.90;;;;;;4988670;28;20065;-80
2023/03/09 06:24:46;;;;;;;21.13;10.73;;;0.70;99.90;;;;;;4989424;28;20549;-80
2023/03/09 06:27:11;;;;;;;20.25;11.63;;;0.80;99.90;;;;;;4987238;28;20509;-80
2023/03/09 06:29:37;;;;;;;21.33;11.25;;;0.80;99.90;;;;;;4985607;28;20038;-80
2023/03/09 06:32:03;;;;;;;23.98;12.13;;;0.80;99.90;;;;;;4987942;28;20393;-80
2023/03/09 06:34:29;;;;;;;21.35;11.07;;;0.80;99.90;;;;;;4988104;28;20085;-80
2023/03/09 06:36:55;;;;;;;21.05;10.75;;;0.90;99.90;;;;;;4988666;28;20210;-80
2023/03/09 06:39:20;;;;;;;20.55;11.18;;;0.80;99.90;;;;;;4988884;28;20480;-80
2023/03/09 06:41:47;;;;;;;20.13;10.98;;;0.80;99.90;;;;;;4987387;28;20062;-80
2023/03/09 06:44:13;;;;;;;22.77;11.48;;;0.90;99.90;;;;;;4986952;28;20077;-80
2023/03/09 06:46:39;;;;;;;17.67;10.23;;;0.90;99.90;;;;;;4987078;28;20084;-81
2023/03/09 06:49:04;;;;;;;19.80;11.02;;;0.90;99.90;;;;;;4989211;28;20066;-80
2023/03/09 06:51:30;;;;;;;20.75;10.60;;;0.90;99.90;;;;;;4989133;28;20463;-80
2023/03/09 06:53:55;;;;;;;20.80;11.38;;;0.90;99.90;;;;;;4988432;28;20050;-80
2023/03/09 06:56:21;;;;;;;20.83;11.35;;;0.90;99.90;;;;;;4987188;28;20046;-81
2023/03/09 06:58:47;;;;;;;18.80;10.85;;;1.00;99.90;;;;;;4988556;28;20485;-80
2023/03/09 07:01:14;;;;;;;19.17;10.68;;;1.00;99.90;;;;;;4976872;28;20062;-80
2023/03/09 07:03:41;;;;;;;18.58;11.13;;;1.00;99.90;;;;;;4977050;28;20042;-81
2023/03/09 07:06:06;;;;;;;20.80;10.73;;;1.10;99.90;;;;;;4986121;28;20084;-81
2023/03/09 07:08:32;;;;;;;19.13;10.80;;;1.60;99.90;;;;;;4984873;28;20042;-80
2023/03/09 07:10:58;;;;;;;20.17;10.98;;;1.10;99.90;;;;;;4987002;28;20069;-80
2023/03/09 07:13:24;;;;;;;20.77;10.68;;;1.10;99.90;;;;;;4988142;28;20422;-80
2023/03/09 07:15:50;;;;;;;20.92;10.98;;;1.20;99.90;;;;;;4988113;28;20050;-80
2023/03/09 07:18:16;;;;;;;19.23;11.02;;;1.20;99.90;;;;;;4986833;28;20552;-80
2023/03/09 07:20:41;;;;;;;19.83;10.63;;;1.30;99.90;;;;;;4988230;28;20046;-81
2023/03/09 07:23:08;;;;;;;17.55;10.32;;;1.30;99.90;;;;;;4974438;28;20142;-80
2023/03/09 07:25:35;;;;;;;23.08;12.40;;;1.40;99.90;;;;;;4951738;28;20133;-81
2023/03/09 07:28:03;;;;;;;19.98;11.32;;;1.40;99.90;;;;;;4967558;28;20047;-81
2023/03/09 07:30:30;;;;;;;17.73;10.57;;;1.40;99.90;;;;;;4979119;28;20481;-81
2023/03/09 07:32:56;;;;;;;21.98;11.90;;;1.40;99.90;;;;;;4971243;28;20046;-82
2023/03/09 07:35:22;;;;;;;19.23;10.93;;;1.40;99.90;;;;;;4986563;28;20042;-80
2023/03/09 07:37:47;;;;;;;19.65;11.32;;;1.40;99.90;;;;;;4986433;28;20053;-81
2023/03/09 07:40:13;;;;;;;21.50;11.32;;;1.40;99.90;;;;;;4987539;28;20504;-81
2023/03/09 07:42:40;;;;;;;20.55;12.07;;;1.50;99.90;;;;;;4982758;28;20042;-81
2023/03/09 07:45:07;;;;;;;19.27;10.80;;;1.50;99.90;;;;;;4988581;28;20428;-80
2023/03/09 07:47:33;;;;;;;21.15;11.55;;;1.50;99.90;;;;;;4987867;28;20042;-81
2023/03/09 07:49:59;;;;;;;19.77;11.35;;;1.60;99.90;;;;;;4986999;28;20487;-81
2023/03/09 07:52:30;;;;;;;21.15;12.27;;;1.70;99.90;;;;;;4987539;28;20046;-81
2023/03/09 07:55:00;;;;;;;19.50;11.25;;;1.70;99.90;;;;;;4987844;28;20090;-81
2023/03/09 07:57:31;;;;;;;20.92;12.05;;;1.80;99.90;;;;;;4988505;28;20046;-81
2023/03/09 07:59:56;;;;;;;21.23;11.40;;;1.90;99.90;;;;;;4986706;28;20501;-81
2023/03/09 08:02:23;;;;;;;22.35;10.85;;;2.00;99.90;;;;;;4988580;28;20154;-81
2023/03/09 08:04:48;;;;;;;19.70;11.57;;;2.00;99.90;;;;;;4988080;28;20046;-81
2023/03/09 08:07:15;;;;;;;20.70;11.15;;;2.10;99.90;;;;;;4987034;28;20085;-82
2023/03/09 08:09:43;;;;;;;17.08;10.98;;;2.10;99.90;;;;;;4970452;28;20113;-81
2023/03/09 08:12:10;;;;;;;18.70;12.27;;;2.10;99.90;;;;;;4990297;28;20449;-81
2023/03/09 08:14:36;;;;;;;19.75;11.50;;;2.20;99.90;;;;;;4974326;28;20201;-81
2023/03/09 08:17:03;;;;;;;18.67;10.77;;;2.20;99.90;;;;;;4991357;28;20046;-80
2023/03/09 08:19:29;;;;;;;17.95;11.00;;;2.20;99.90;;;;;;4990896;28;20058;-81
2023/03/09 08:21:55;;;;;;;19.83;12.27;;;2.30;99.90;;;;;;4990747;28;20065;-79
2023/03/09 08:24:21;;;;;;;18.80;12.40;;;2.30;99.90;;;;;;4991901;28;20486;-79
2023/03/09 08:26:46;;;;;;;18.10;11.38;;;2.30;99.90;;;;;;4990939;28;20046;-79
2023/03/09 08:29:12;;;;;;;20.38;11.52;;;2.30;99.90;;;;;;4992141;28;20050;-80
2023/03/09 08:31:38;;;;;;;19.73;11.40;;;2.30;99.90;;;;;;4991463;28;20485;-79
2023/03/09 08:34:04;;;;;;;20.90;12.85;;;2.40;99.90;;;;;;4991943;28;20081;-79
2023/03/09 08:36:30;;;;;;;18.02;11.45;;;2.40;99.90;;;;;;4991608;28;20050;-79
2023/03/09 08:38:57;;;;;;;18.70;11.23;;;2.50;99.90;;;;;;4991464;28;20493;-79
2023/03/09 08:41:22;;;;;;;18.88;11.80;;;2.60;99.90;;;;;;4988898;28;20424;-79
2023/03/09 08:43:50;;;;;;;21.85;12.95;;;2.60;99.90;;;;;;4990399;28;20050;-80
2023/03/09 08:46:16;;;;;;;18.65;12.30;;;2.70;99.90;;;;;;4990345;28;20050;-79
2023/03/09 08:48:42;;;;;;;18.73;11.68;;;2.70;99.90;;;;;;4989658;28;20053;-79
2023/03/09 08:51:09;;;;;;;17.90;11.82;;;2.70;99.90;;;;;;4990726;28;20042;-79
2023/03/09 08:53:37;;;;;;;17.35;11.50;;;2.70;99.90;;;;;;4987389;28;20057;-79
2023/03/09 08:56:04;;;;;;;20.42;12.05;;;2.70;99.90;;;;;;4988927;28;20050;-79
2023/03/09 08:58:29;;;;;;;19.20;11.50;;;2.70;99.90;;;;;;4986817;28;20499;-79
2023/03/09 09:00:55;;;;;;;18.27;11.73;;;2.70;99.90;;;;;;4986694;28;20126;-78
2023/03/09 09:03:20;;;;;;;20.15;11.60;;;2.70;99.90;;;;;;4990437;28;20377;-78
2023/03/09 09:05:46;;;;;;;21.80;12.48;;;2.70;99.90;;;;;;4979438;28;20050;-79
2023/03/09 09:08:11;;;;;;;19.83;11.73;;;2.80;99.90;;;;;;4976103;28;20055;-80
2023/03/09 09:10:45;;;;;;;15.90;10.68;;;2.70;99.90;;;;;;4976418;28;20141;-79
2023/03/09 09:13:11;;;;;;;19.13;12.23;;;3.40;99.90;;;;;;4981992;28;20507;-79
2023/03/09 09:15:39;;;;;;;19.40;11.98;;;2.80;99.90;;;;;;4988763;28;20145;-80
2023/03/09 09:18:06;;;;;;;17.38;11.68;;;2.80;99.90;;;;;;4982862;28;20057;-79
2023/03/09 09:20:31;;;;;;;19.15;12.07;;;2.80;99.90;;;;;;4966416;28;20050;-80
2023/03/09 09:22:58;;;;;;;20.30;11.57;;;2.90;99.90;;;;;;4984039;28;20069;-79
2023/03/09 09:25:24;;;;;;;18.50;11.55;;;2.90;99.90;;;;;;4969120;28;20046;-80
2023/03/09 09:27:50;;;;;;;16.23;11.13;;;2.90;99.90;;;;;;4988750;28;20038;-79
2023/03/09 09:30:17;;;;;;;19.45;12.13;;;2.90;99.90;;;;;;4991025;28;20070;-79
2023/03/09 09:32:44;;;;;;;17.92;12.05;;;3.00;99.90;;;;;;4990456;28;20039;-80
2023/03/09 09:35:11;;;;;;;18.10;12.15;;;3.10;99.90;;;;;;4991097;28;20052;-79
2023/03/09 09:37:36;;;;;;;19.23;11.68;;;3.10;99.90;;;;;;4973785;28;20102;-79
2023/03/09 09:40:02;;;;;;;16.67;11.30;;;3.20;99.90;;;;;;4990157;28;20046;-79
2023/03/09 09:42:32;;;;;;;17.27;11.27;;;3.10;99.90;;;;;;4990646;28;20101;-79
2023/03/09 09:44:59;;;;;;;20.58;13.05;;;3.80;99.90;;;;;;4987962;28;20100;-79
2023/03/09 09:47:27;;;;;;;18.55;11.45;;;3.10;99.90;;;;;;4990897;28;20444;-79
2023/03/09 09:49:56;;;;;;;17.80;11.32;;;3.10;99.90;;;;;;4991165;28;20065;-80
2023/03/09 09:52:46;;;;;;;20.02;13.25;;;3.10;99.90;;;;;;4969635;28;20053;-79
2023/03/09 09:55:25;;;;;;;16.05;10.82;;;3.20;99.90;;;;;;4969865;28;20050;-79
2023/03/09 09:58:33;;;;;;;30.27;18.77;;;3.30;99.90;;;;;;4982868;28;20137;-79
2023/03/09 10:01:04;;;;;;;18.02;12.18;;;3.40;99.90;;;;;;4988607;28;20137;-80
2023/03/09 10:03:41;;;;;;;17.27;11.35;;;3.40;99.90;;;;;;4989714;28;20920;-80
2023/03/09 10:06:12;;;;;;;18.70;11.02;;;3.40;99.90;;;;;;4986674;28;20050;-79
2023/03/09 10:09:03;;;;;;;15.40;10.63;;;3.40;99.90;;;;;;4990442;28;20532;-79
2023/03/09 10:11:36;;;;;;;18.48;11.73;;;3.40;99.90;;;;;;4988788;28;20069;-79
2023/03/09 10:14:56;;;;;;;17.88;11.48;;;3.40;99.90;;;;;;4990279;28;20085;-79
2023/03/09 10:17:31;;;;;;;16.60;11.13;;;3.50;99.90;;;;;;4952354;28;20141;-79
2023/03/09 10:19:59;;;;;;;16.23;11.15;;;3.50;99.90;;;;;;4989843;28;20050;-79
2023/03/09 10:22:27;;;;;;;16.63;10.68;;;3.50;99.90;;;;;;4971208;28;20100;-79
2023/03/09 10:24:55;;;;;;;17.17;11.18;;;3.50;99.90;;;;;;4987809;28;20100;-79
2023/03/09 10:27:40;;;;;;;17.83;11.98;;;3.50;99.90;;;;;;4987946;28;20053;-79
2023/03/09 10:30:32;;;;;;;17.95;11.77;;;3.50;99.90;;;;;;4988806;28;20141;-79
2023/03/09 10:33:19;;;;;;;17.77;11.90;;;3.50;99.90;;;;;;4988487;28;20050;-79
2023/03/09 10:36:03;;;;;;;18.13;12.38;;;3.50;99.90;;;;;;4969286;28;20434;-79
2023/03/09 10:38:29;;;;;;;15.65;11.18;;;3.50;99.90;;;;;;4970333;28;20113;-79
2023/03/09 10:40:56;;;;;;;19.45;12.82;;;3.50;99.90;;;;;;4970413;28;20413;-79
2023/03/09 10:43:29;;;;;;;17.52;11.38;;;3.50;99.90;;;;;;4982723;28;20058;-79
2023/03/09 10:46:21;;;;;;;16.05;11.23;;;3.60;99.90;;;;;;4985352;28;20099;-79
2023/03/09 10:48:49;;;;;;;17.85;11.85;;;3.60;99.90;;;;;;4988396;28;20448;-79
2023/03/09 10:51:25;;;;;;;19.75;12.38;;;3.60;99.90;;;;;;4989401;28;20050;-79
2023/03/09 10:53:53;;;;;;;16.77;11.70;;;3.70;99.90;;;;;;4985656;28;20054;-79
2023/03/09 10:56:28;;;;;;;18.10;12.20;;;3.70;99.90;;;;;;4985606;28;20046;-79
2023/03/09 10:59:06;;;;;;;17.80;12.23;;;3.70;99.90;;;;;;4986478;28;20077;-79
2023/03/09 11:01:37;;;;;;;17.58;12.70;;;3.70;99.90;;;;;;4988336;28;20404;-79
2023/03/09 11:04:30;;;;;;;17.63;11.68;;;3.80;99.90;;;;;;4987311;28;20555;-79
2023/03/09 11:07:01;;;;;;;19.55;12.40;;;3.80;99.90;;;;;;4987369;28;20091;-79
2023/03/09 11:09:35;;;;;;;19.52;11.88;;;3.90;99.90;;;;;;4989158;28;20046;-79
2023/03/09 11:12:18;;;;;;;19.73;12.45;;;4.00;99.90;;;;;;4986053;28;20065;-80
2023/03/09 11:14:50;;;;;;;17.88;11.95;;;4.00;99.90;;;;;;4967077;28;20053;-78
2023/03/09 11:17:34;;;;;;;17.75;11.88;;;4.00;99.90;;;;;;4969412;28;20074;-78
2023/03/09 11:20:12;;;;;;;19.55;12.18;;;4.00;99.90;;;;;;4971641;28;20046;-78
2023/03/09 11:22:41;;;;;;;18.45;12.25;;;4.10;99.90;;;;;;4986824;28;20566;-78
2023/03/09 11:25:21;;;;;;;19.00;11.32;;;4.10;99.90;;;;;;4986460;28;20458;-79
2023/03/09 11:27:54;;;;;;;18.88;12.05;;;4.20;99.90;;;;;;4982363;28;20050;-79
2023/03/09 11:30:22;;;;;;;17.27;11.18;;;4.20;99.90;;;;;;4985646;28;20046;-78
2023/03/09 11:32:49;;;;;;;17.77;11.77;;;4.20;99.90;;;;;;4983390;28;20681;-78
2023/03/09 11:35:16;;;;;;;16.60;11.38;;;4.20;99.90;;;;;;4968798;28;20050;-78
2023/03/09 11:37:47;;;;;;;17.88;12.45;;;4.10;99.90;;;;;;4986390;28;20052;-78
2023/03/09 11:40:21;;;;;;;17.73;11.93;;;4.10;99.90;;;;;;4985702;28;20108;-77
2023/03/09 11:43:03;;;;;;;17.42;11.73;;;4.10;99.90;;;;;;4967590;28;20057;-79
2023/03/09 11:45:32;;;;;;;17.27;11.50;;;4.10;99.90;;;;;;4969905;28;20065;-79
2023/03/09 11:48:01;;;;;;;14.88;10.05;;;4.20;99.90;;;;;;4987399;28;20355;-79
2023/03/09 11:50:49;;;;;;;16.25;10.80;;;4.20;99.90;;;;;;4971221;28;20053;-79
2023/03/09 11:53:59;;;;;;;15.88;11.13;;;4.30;99.90;;;;;;4986954;28;20053;-81
2023/03/09 11:56:29;;;;;;;16.23;11.07;;;4.30;99.90;;;;;;4968484;28;20061;-80
2023/03/09 11:59:05;;;;;;;15.63;10.68;;;4.80;99.90;;;;;;4985322;28;20417;-79
2023/03/09 12:01:37;;;;;;;16.73;12.02;;;4.30;99.90;;;;;;4975579;28;20054;-79
2023/03/09 12:04:05;;;;;;;19.42;11.93;;;4.40;99.90;;;;;;4968292;28;20086;-80
2023/03/09 12:06:31;;;;;;;18.35;11.73;;;4.40;99.90;;;;;;4986851;28;20056;-79
2023/03/09 12:09:00;;;;;;;16.00;11.18;;;4.50;99.90;;;;;;4988339;28;20749;-79
2023/03/09 12:11:35;;;;;;;16.98;11.60;;;4.60;99.90;;;;;;4988697;28;20093;-79
2023/03/09 12:14:04;;;;;;;18.45;12.90;;;4.50;99.90;;;;;;4987878;28;20828;-81
2023/03/09 12:16:38;;;;;;;17.65;11.38;;;4.60;99.90;;;;;;4986742;28;20064;-79
2023/03/09 12:19:10;;;;;;;18.65;12.50;;;4.50;99.90;;;;;;4987550;28;20157;-79
2023/03/09 12:21:38;;;;;;;21.30;14.80;;;4.40;99.90;;;;;;4988302;28;20119;-79
2023/03/09 12:24:27;;;;;;;51.35;40.72;;;4.40;99.90;;;;;;4984131;28;20174;-79
2023/03/09 12:27:04;;;;;;;31.00;22.23;;;4.40;99.90;;;;;;4974325;28;20050;-80
2023/03/09 12:29:54;;;;;;;25.88;20.67;;;4.40;99.90;;;;;;4986535;28;20086;-79
2023/03/09 12:32:41;;;;;;;44.90;35.15;;;4.40;99.90;;;;;;4986970;28;20047;-80
2023/03/09 12:35:20;;;;;;;29.05;23.05;;;4.30;99.90;;;;;;4976242;28;20064;-80
2023/03/09 12:37:46;;;;;;;18.67;12.05;;;4.30;99.90;;;;;;4985107;28;20139;-80
2023/03/09 12:40:27;;;;;;;21.75;16.33;;;4.20;99.90;;;;;;4988517;28;20130;-80
2023/03/09 12:42:56;;;;;;;20.17;14.70;;;4.30;99.90;;;;;;4985447;28;20054;-80
2023/03/09 12:45:33;;;;;;;16.42;10.68;;;4.20;99.90;;;;;;4985946;28;20046;-80
2023/03/09 12:48:25;;;;;;;17.50;11.80;;;4.20;99.90;;;;;;4985120;28;20137;-78
2023/03/09 12:51:09;;;;;;;17.40;12.00;;;4.20;99.90;;;;;;4986791;28;20054;-80